createdAt,value
2017-07-31T00:00:50.877Z,99.90
2017-07-31T00:03:18.370Z,99.90
2017-07-31T00:05:49.688Z,99.90
2017-07-31T00:08:17.178Z,99.90
2017-07-31T00:10:45.447Z,99.90
2017-07-31T00:13:13.015Z,99.90
2017-07-31T00:15:41.293Z,99.90
2017-07-31T00:18:09.670Z,99.90
2017-07-31T00:20:37.912Z,99.90
2017-07-31T00:23:05.377Z,99.90
2017-07-31T00:25:32.873Z,99.90
2017-07-31T00:28:00.350Z,99.90
2017-07-31T00:30:27.876Z,99.90
2017-07-31T00:32:56.130Z,99.90
2017-07-31T00:35:23.919Z,99.90
2017-07-31T00:37:52.174Z,99.90
2017-07-31T00:40:19.791Z,99.90
2017-07-31T00:42:47.326Z,99.90
2017-07-31T00:45:14.877Z,99.90
2017-07-31T00:47:43.149Z,99.90
2017-07-31T00:50:11.385Z,99.90
2017-07-31T00:52:38.878Z,99.90
2017-07-31T00:55:07.160Z,99.90
2017-07-31T00:57:35.432Z,99.90
2017-07-31T01:00:03.720Z,99.90
2017-07-31T01:02:31.990Z,99.90
2017-07-31T01:05:00.273Z,99.90
2017-07-31T01:07:27.824Z,99.90
2017-07-31T01:09:56.058Z,99.90
2017-07-31T01:12:23.552Z,99.90
2017-07-31T01:14:51.824Z,99.90
2017-07-31T01:17:20.089Z,99.90
2017-07-31T01:19:47.562Z,99.90
2017-07-31T01:22:15.845Z,99.90
2017-07-31T01:24:44.112Z,99.90
2017-07-31T01:27:11.639Z,99.90
2017-07-31T01:29:39.116Z,99.90
2017-07-31T01:32:06.698Z,99.90
2017-07-31T01:34:34.972Z,99.90
2017-07-31T01:37:03.252Z,99.90
2017-07-31T01:39:31.524Z,99.90
2017-07-31T01:41:59.802Z,99.90
2017-07-31T01:44:28.079Z,99.90
2017-07-31T01:46:56.351Z,99.90
2017-07-31T01:49:24.630Z,99.90
2017-07-31T01:51:52.878Z,99.90
2017-07-31T01:54:20.366Z,99.90
2017-07-31T01:56:48.630Z,99.90
2017-07-31T01:59:16.201Z,99.90
2017-07-31T02:01:44.481Z,99.90
2017-07-31T02:04:12.740Z,99.90
2017-07-31T02:06:40.317Z,99.90
2017-07-31T02:09:08.594Z,99.90
2017-07-31T02:11:36.136Z,99.90
2017-07-31T02:14:03.643Z,99.90
2017-07-31T02:16:31.175Z,99.90
2017-07-31T02:18:59.540Z,99.90
2017-07-31T02:21:27.824Z,99.90
2017-07-31T02:23:56.089Z,99.90
2017-07-31T02:26:24.356Z,99.90
2017-07-31T02:28:51.823Z,99.90
2017-07-31T02:31:19.393Z,99.90
2017-07-31T02:33:47.674Z,99.90
2017-07-31T02:36:15.945Z,99.90
2017-07-31T02:38:44.195Z,99.90
2017-07-31T02:41:11.681Z,99.90
2017-07-31T02:43:39.960Z,99.90
2017-07-31T02:46:08.235Z,99.90
2017-07-31T02:48:36.464Z,99.90
2017-07-31T02:51:03.978Z,99.90
2017-07-31T02:53:31.451Z,99.90
2017-07-31T02:55:58.997Z,99.90
2017-07-31T02:58:26.541Z,99.90
2017-07-31T03:00:54.803Z,99.90
2017-07-31T03:03:22.898Z,99.90
2017-07-31T03:05:51.255Z,99.90
2017-07-31T03:08:19.541Z,99.90
2017-07-31T03:10:47.810Z,99.90
2017-07-31T03:13:15.325Z,99.90
2017-07-31T03:15:42.838Z,99.90
2017-07-31T03:18:11.096Z,99.90
2017-07-31T03:20:38.668Z,99.90
2017-07-31T03:23:06.943Z,99.90
2017-07-31T03:25:35.226Z,99.90
2017-07-31T03:28:03.503Z,99.90
2017-07-31T03:30:31.773Z,99.90
2017-07-31T03:33:00.036Z,99.90
2017-07-31T03:35:27.525Z,99.90
2017-07-31T03:37:55.036Z,99.90
2017-07-31T03:40:22.523Z,99.90
2017-07-31T03:42:50.083Z,99.90
2017-07-31T03:45:18.363Z,99.90
2017-07-31T03:47:46.633Z,99.90
2017-07-31T03:50:14.921Z,99.90
2017-07-31T03:52:43.288Z,99.90
2017-07-31T03:55:11.534Z,99.90
2017-07-31T03:57:39.042Z,99.90
2017-07-31T04:00:06.591Z,99.90
2017-07-31T04:02:34.838Z,99.90
2017-07-31T04:05:02.416Z,99.90
2017-07-31T04:07:29.886Z,99.90
2017-07-31T04:09:58.147Z,99.90
2017-07-31T04:12:25.633Z,99.90
2017-07-31T04:14:53.171Z,99.90
2017-07-31T04:17:21.443Z,99.90
2017-07-31T04:19:49.006Z,99.90
2017-07-31T04:22:17.243Z,99.90
2017-07-31T04:24:44.743Z,99.90
2017-07-31T04:27:12.994Z,99.90
2017-07-31T04:29:40.714Z,99.90
2017-07-31T04:32:08.182Z,99.90
2017-07-31T04:34:35.683Z,99.90
2017-07-31T04:37:03.253Z,99.90
2017-07-31T04:39:31.531Z,99.90
2017-07-31T04:41:59.767Z,99.90
2017-07-31T04:44:27.260Z,99.90
2017-07-31T04:46:55.554Z,99.90
2017-07-31T04:49:23.824Z,99.90
2017-07-31T04:51:52.107Z,99.90
2017-07-31T04:54:20.342Z,99.90
2017-07-31T04:56:47.823Z,99.90
2017-07-31T04:59:15.298Z,99.90
2017-07-31T05:01:43.561Z,99.90
2017-07-31T05:04:11.854Z,99.90
2017-07-31T05:06:40.121Z,99.90
2017-07-31T05:09:08.397Z,99.90
2017-07-31T05:11:36.674Z,99.90
2017-07-31T05:14:04.923Z,99.90
2017-07-31T05:16:32.403Z,99.90
2017-07-31T05:19:00.673Z,99.90
2017-07-31T05:21:28.948Z,99.90
2017-07-31T05:23:57.202Z,99.90
2017-07-31T05:26:24.776Z,99.90
2017-07-31T05:28:52.369Z,99.90
2017-07-31T05:31:19.937Z,99.90
2017-07-31T05:33:47.423Z,99.90
2017-07-31T05:36:14.933Z,99.90
2017-07-31T05:38:42.464Z,99.90
2017-07-31T05:41:10.043Z,99.90
2017-07-31T05:43:38.313Z,99.90
2017-07-31T05:46:06.611Z,99.90
2017-07-31T05:48:34.878Z,99.90
2017-07-31T05:51:03.127Z,99.90
2017-07-31T05:53:30.613Z,99.90
2017-07-31T05:55:58.866Z,99.90
2017-07-31T05:58:26.437Z,99.90
2017-07-31T06:00:54.005Z,99.90
2017-07-31T06:03:22.258Z,99.90
2017-07-31T06:05:49.726Z,99.90
2017-07-31T06:08:17.295Z,99.90
2017-07-31T06:10:45.571Z,99.90
2017-07-31T06:13:13.901Z,99.90
2017-07-31T06:15:41.436Z,99.90
2017-07-31T06:18:08.995Z,99.90
2017-07-31T06:20:36.539Z,99.90
2017-07-31T06:23:04.809Z,99.90
2017-07-31T06:25:33.092Z,99.90
2017-07-31T06:28:01.339Z,99.90
2017-07-31T06:30:28.814Z,99.90
2017-07-31T06:32:57.071Z,99.90
2017-07-31T06:35:24.647Z,99.90
2017-07-31T06:37:52.907Z,99.70
2017-07-31T06:40:20.482Z,99.70
2017-07-31T06:42:48.054Z,99.50
2017-07-31T06:45:16.327Z,99.30
2017-07-31T06:47:44.576Z,99.10
2017-07-31T06:50:12.078Z,99.10
2017-07-31T06:55:33.267Z,98.80
2017-07-31T06:58:00.854Z,98.80
2017-07-31T07:00:29.145Z,98.70
2017-07-31T07:02:56.690Z,98.70
2017-07-31T07:05:24.975Z,98.60
2017-07-31T07:07:52.519Z,98.60
2017-07-31T07:10:20.800Z,97.90
2017-07-31T07:12:49.073Z,98.20
2017-07-31T07:15:17.334Z,97.90
2017-07-31T07:17:44.831Z,97.90
2017-07-31T07:20:12.317Z,97.80
2017-07-31T07:22:39.800Z,98.00
2017-07-31T07:25:07.281Z,97.80
2017-07-31T07:27:35.568Z,97.30
2017-07-31T07:30:03.828Z,97.60
2017-07-31T07:32:31.388Z,97.60
2017-07-31T07:34:59.654Z,97.30
2017-07-31T07:37:27.135Z,97.30
2017-07-31T07:39:55.380Z,97.00
2017-07-31T07:42:22.966Z,97.00
2017-07-31T07:44:51.245Z,97.20
2017-07-31T07:47:19.524Z,97.10
2017-07-31T07:49:47.772Z,96.70
2017-07-31T07:52:15.338Z,96.70
2017-07-31T07:54:58.580Z,96.70
2017-07-31T07:57:26.950Z,96.20
2017-07-31T07:59:54.449Z,96.20
2017-07-31T08:05:15.936Z,95.60
2017-07-31T08:07:43.522Z,95.40
2017-07-31T08:10:11.771Z,95.40
2017-07-31T08:12:39.351Z,95.70
2017-07-31T08:15:07.628Z,95.70
2017-07-31T08:17:35.921Z,95.60
2017-07-31T08:20:03.431Z,95.60
2017-07-31T08:22:31.015Z,95.20
2017-07-31T08:27:53.690Z,95.80
2017-07-31T08:30:21.953Z,95.60
2017-07-31T08:35:42.598Z,95.50
2017-07-31T08:38:10.146Z,95.80
2017-07-31T08:40:37.641Z,96.00
2017-07-31T08:43:05.166Z,96.40
2017-07-31T08:45:33.544Z,96.30
2017-07-31T08:48:01.816Z,96.50
2017-07-31T08:50:30.192Z,96.20
2017-07-31T08:52:58.476Z,96.00
2017-07-31T08:55:26.746Z,96.00
2017-07-31T08:57:54.995Z,95.80
2017-07-31T09:00:22.577Z,95.70
2017-07-31T09:02:50.865Z,95.60
2017-07-31T09:05:19.597Z,95.40
2017-07-31T09:07:47.096Z,95.40
2017-07-31T09:10:14.664Z,95.20
2017-07-31T09:12:42.933Z,95.00
2017-07-31T09:15:11.185Z,94.50
2017-07-31T09:17:38.769Z,94.40
2017-07-31T09:20:07.013Z,94.40
2017-07-31T09:22:34.516Z,94.20
2017-07-31T09:25:02.063Z,93.60
2017-07-31T09:27:30.303Z,93.80
2017-07-31T09:29:57.781Z,93.80
2017-07-31T09:32:26.278Z,92.90
2017-07-31T09:34:54.535Z,92.40
2017-07-31T09:37:22.098Z,92.60
2017-07-31T09:39:55.375Z,92.50
2017-07-31T09:42:22.862Z,92.40
2017-07-31T09:44:51.146Z,91.50
2017-07-31T09:47:19.524Z,91.50
2017-07-31T09:49:47.080Z,91.50
2017-07-31T09:52:15.377Z,91.60
2017-07-31T09:54:42.860Z,91.40
2017-07-31T09:57:10.360Z,91.40
2017-07-31T09:59:37.927Z,91.80
2017-07-31T10:04:59.973Z,90.80
2017-07-31T10:07:27.543Z,90.80
2017-07-31T10:09:55.821Z,90.70
2017-07-31T10:12:24.131Z,90.90
2017-07-31T10:14:51.616Z,90.70
2017-07-31T10:17:38.689Z,90.00
2017-07-31T10:20:06.248Z,89.40
2017-07-31T10:22:33.805Z,90.60
2017-07-31T10:25:01.354Z,90.50
2017-07-31T10:27:29.629Z,90.60
2017-07-31T10:29:57.920Z,90.50
2017-07-31T10:32:26.190Z,90.60
2017-07-31T10:34:54.434Z,90.70
2017-07-31T10:37:21.905Z,90.70
2017-07-31T10:39:49.481Z,90.70
2017-07-31T10:42:17.729Z,91.30
2017-07-31T10:44:46.235Z,91.20
2017-07-31T10:47:15.028Z,90.60
2017-07-31T10:49:43.312Z,89.90
2017-07-31T10:52:10.811Z,89.80
2017-07-31T10:54:38.320Z,89.20
2017-07-31T10:57:06.583Z,87.30
2017-07-31T10:59:34.133Z,87.20
2017-07-31T11:02:01.709Z,87.50
2017-07-31T11:04:29.987Z,88.50
2017-07-31T11:06:58.255Z,88.20
2017-07-31T11:09:25.813Z,88.20
2017-07-31T11:11:53.387Z,87.40
2017-07-31T11:14:21.653Z,86.60
2017-07-31T11:16:49.918Z,86.20
2017-07-31T11:19:17.471Z,86.10
2017-07-31T11:21:45.766Z,86.10
2017-07-31T11:24:14.057Z,87.70
2017-07-31T11:26:42.314Z,86.30
2017-07-31T11:29:10.615Z,86.80
2017-07-31T11:31:38.174Z,87.10
2017-07-31T11:34:05.718Z,88.60
2017-07-31T11:36:34.550Z,89.10
2017-07-31T11:39:02.069Z,89.40
2017-07-31T11:41:30.334Z,89.60
2017-07-31T11:43:58.609Z,89.00
2017-07-31T11:46:26.082Z,88.40
2017-07-31T11:48:53.635Z,88.70
2017-07-31T11:51:21.878Z,87.60
2017-07-31T11:53:49.371Z,87.60
2017-07-31T11:56:17.631Z,86.40
2017-07-31T11:58:45.126Z,86.30
2017-07-31T12:01:12.595Z,86.60
2017-07-31T12:03:40.946Z,87.00
2017-07-31T12:06:08.465Z,84.90
2017-07-31T12:08:36.055Z,84.50
2017-07-31T12:11:04.331Z,84.50
2017-07-31T12:13:32.611Z,83.80
2017-07-31T12:16:00.881Z,84.00
2017-07-31T12:18:29.166Z,84.60
2017-07-31T12:20:57.416Z,82.30
2017-07-31T12:23:24.995Z,82.30
2017-07-31T12:25:53.283Z,81.00
2017-07-31T12:28:21.562Z,81.40
2017-07-31T12:30:49.839Z,80.70
2017-07-31T12:33:18.115Z,80.90
2017-07-31T12:35:46.389Z,80.00
2017-07-31T12:38:14.647Z,81.00
2017-07-31T12:40:42.139Z,81.00
2017-07-31T12:43:09.624Z,90.70
2017-07-31T12:45:37.115Z,92.20
2017-07-31T12:48:04.697Z,93.20
2017-07-31T12:50:32.984Z,94.20
2017-07-31T12:53:00.523Z,94.20
2017-07-31T12:55:28.777Z,94.30
2017-07-31T12:57:56.254Z,94.20
2017-07-31T13:00:24.535Z,94.20
2017-07-31T13:02:52.809Z,94.00
2017-07-31T13:05:21.532Z,93.20
2017-07-31T13:07:49.056Z,93.20
2017-07-31T13:10:17.331Z,91.70
2017-07-31T13:12:45.608Z,92.10
2017-07-31T13:15:13.887Z,92.10
2017-07-31T13:17:42.178Z,92.30
2017-07-31T13:20:09.723Z,92.10
2017-07-31T13:22:38.010Z,90.40
2017-07-31T13:25:06.272Z,90.10
2017-07-31T13:27:34.544Z,90.60
2017-07-31T13:30:02.826Z,86.90
2017-07-31T13:32:31.110Z,85.50
2017-07-31T13:34:59.375Z,87.10
2017-07-31T13:37:27.630Z,84.10
2017-07-31T13:39:55.115Z,84.60
2017-07-31T13:44:57.093Z,85.20
2017-07-31T13:47:25.353Z,84.10
2017-07-31T13:49:52.918Z,84.00
2017-07-31T13:52:20.498Z,86.30
2017-07-31T13:54:48.758Z,84.50
2017-07-31T13:57:16.340Z,84.50
2017-07-31T13:59:43.891Z,84.30
2017-07-31T14:02:12.151Z,84.40
2017-07-31T14:04:39.686Z,84.40
2017-07-31T14:07:07.165Z,85.00
2017-07-31T14:09:34.653Z,84.20
2017-07-31T14:12:02.131Z,83.60
2017-07-31T14:14:29.757Z,84.70
2017-07-31T14:16:58.029Z,82.80
2017-07-31T14:19:26.314Z,81.70
2017-07-31T14:21:54.576Z,81.40
2017-07-31T14:24:22.860Z,80.60
2017-07-31T14:26:51.133Z,81.60
2017-07-31T14:29:19.412Z,81.10
2017-07-31T14:31:47.722Z,81.00
2017-07-31T14:34:15.251Z,80.80
2017-07-31T14:36:43.525Z,83.00
2017-07-31T14:39:11.907Z,84.10
2017-07-31T14:41:40.182Z,82.00
2017-07-31T14:44:08.476Z,80.10
2017-07-31T14:46:36.010Z,80.00
2017-07-31T14:49:04.307Z,82.90
2017-07-31T14:51:31.861Z,82.10
2017-07-31T14:54:00.944Z,83.10
2017-07-31T14:56:29.218Z,84.40
2017-07-31T14:58:57.453Z,85.00
2017-07-31T15:01:26.779Z,85.00
2017-07-31T15:03:54.366Z,84.90
2017-07-31T15:06:22.734Z,83.30
2017-07-31T15:08:50.986Z,83.40
2017-07-31T15:11:18.476Z,82.60
2017-07-31T15:13:46.745Z,82.10
2017-07-31T15:16:15.035Z,83.30
2017-07-31T15:18:43.302Z,80.90
2017-07-31T15:21:11.561Z,82.60
2017-07-31T15:23:39.050Z,82.50
2017-07-31T15:26:07.323Z,81.60
2017-07-31T15:28:35.589Z,82.50
2017-07-31T15:31:03.848Z,82.60
2017-07-31T15:33:31.429Z,82.60
2017-07-31T15:35:59.902Z,82.40
2017-07-31T15:38:28.136Z,82.10
2017-07-31T15:41:03.234Z,82.10
2017-07-31T15:43:30.705Z,83.70
2017-07-31T15:45:58.186Z,81.80
2017-07-31T15:48:25.793Z,82.40
2017-07-31T15:50:54.046Z,83.40
2017-07-31T15:53:21.638Z,83.30
2017-07-31T15:55:49.899Z,82.90
2017-07-31T15:58:18.164Z,83.70
2017-07-31T16:00:45.641Z,83.30
2017-07-31T16:03:13.908Z,83.90
2017-07-31T16:05:42.205Z,84.60
2017-07-31T16:08:09.698Z,84.60
2017-07-31T16:10:37.178Z,84.50
2017-07-31T16:13:04.669Z,84.60
2017-07-31T16:15:32.955Z,85.20
2017-07-31T16:18:00.435Z,85.20
2017-07-31T16:20:27.914Z,85.00
2017-07-31T16:22:55.419Z,84.50
2017-07-31T16:25:23.673Z,84.10
2017-07-31T16:27:51.285Z,84.10
2017-07-31T16:30:18.795Z,82.80
2017-07-31T16:32:46.367Z,83.10
2017-07-31T16:35:14.668Z,81.20
2017-07-31T16:37:42.220Z,81.20
2017-07-31T16:40:32.508Z,80.20
2017-07-31T16:43:25.557Z,80.90
2017-07-31T16:45:53.830Z,80.90
2017-07-31T16:48:31.122Z,79.80
2017-07-31T16:50:59.401Z,79.00
2017-07-31T16:53:27.677Z,77.80
2017-07-31T16:55:55.953Z,75.10
2017-07-31T16:58:24.226Z,73.80
2017-07-31T17:00:52.474Z,73.30
2017-07-31T17:03:19.974Z,72.50
2017-07-31T17:05:47.532Z,71.90
2017-07-31T17:08:15.079Z,70.80
2017-07-31T17:10:43.358Z,68.40
2017-07-31T17:13:11.596Z,67.40
2017-07-31T17:15:39.193Z,67.30
2017-07-31T17:18:07.474Z,66.60
2017-07-31T17:20:35.769Z,67.40
2017-07-31T17:23:03.248Z,67.40
2017-07-31T17:25:30.768Z,67.90
2017-07-31T17:27:59.029Z,69.90
2017-07-31T17:30:27.307Z,72.80
2017-07-31T17:32:54.885Z,72.80
2017-07-31T17:35:23.160Z,77.10
2017-07-31T17:37:51.417Z,78.40
2017-07-31T17:40:18.981Z,78.50
2017-07-31T17:42:47.270Z,81.70
2017-07-31T17:45:15.516Z,81.60
2017-07-31T17:47:43.050Z,81.60
2017-07-31T17:50:10.555Z,82.20
2017-07-31T17:52:38.816Z,83.40
2017-07-31T17:55:06.393Z,83.40
2017-07-31T17:57:34.636Z,85.50
2017-07-31T18:00:02.126Z,85.50
2017-07-31T18:02:30.397Z,86.60
2017-07-31T18:04:57.959Z,86.60
2017-07-31T18:07:25.513Z,86.90
2017-07-31T18:09:52.995Z,87.70
2017-07-31T18:12:21.080Z,88.10
2017-07-31T18:14:48.619Z,88.40
2017-07-31T18:17:16.878Z,89.40
2017-07-31T18:19:45.133Z,89.50
2017-07-31T18:22:12.654Z,89.40
2017-07-31T18:24:40.168Z,89.80
2017-07-31T18:27:07.645Z,89.90
2017-07-31T18:29:35.897Z,90.40
2017-07-31T18:32:03.383Z,90.40
2017-07-31T18:34:30.919Z,90.70
2017-07-31T18:36:59.165Z,91.50
2017-07-31T18:39:26.654Z,91.50
2017-07-31T18:41:54.944Z,92.30
2017-07-31T18:44:22.494Z,92.30
2017-07-31T18:46:57.217Z,92.60
2017-07-31T18:49:24.800Z,92.60
2017-07-31T18:51:58.497Z,92.80
2017-07-31T18:54:26.763Z,93.20
2017-07-31T18:56:55.043Z,93.40
2017-07-31T18:59:23.316Z,94.00
2017-07-31T19:01:51.608Z,93.60
2017-07-31T19:04:19.147Z,93.80
2017-07-31T19:06:47.431Z,94.20
2017-07-31T19:09:15.995Z,94.50
2017-07-31T19:11:43.592Z,94.50
2017-07-31T19:14:11.095Z,95.20
2017-07-31T19:16:38.580Z,94.90
2017-07-31T19:19:06.817Z,96.10
2017-07-31T19:21:34.322Z,96.10
2017-07-31T19:24:02.559Z,96.50
2017-07-31T19:26:30.063Z,96.50
2017-07-31T19:28:58.451Z,96.30
2017-07-31T19:31:25.938Z,96.20
2017-07-31T19:33:53.423Z,96.40
2017-07-31T19:36:20.910Z,96.50
2017-07-31T19:38:49.320Z,96.90
2017-07-31T19:41:16.844Z,96.80
2017-07-31T19:43:45.122Z,97.40
2017-07-31T19:46:13.408Z,97.50
2017-07-31T19:48:40.957Z,97.40
2017-07-31T19:51:09.232Z,97.40
2017-07-31T19:53:37.529Z,98.00
2017-07-31T19:56:05.003Z,98.00
2017-07-31T19:58:32.530Z,98.10
2017-07-31T20:01:00.823Z,97.60
2017-07-31T20:03:28.354Z,97.60
2017-07-31T20:05:55.932Z,97.30
2017-07-31T20:08:24.199Z,98.30
2017-07-31T20:10:52.435Z,97.30
2017-07-31T20:13:20.041Z,97.30
2017-07-31T20:15:48.314Z,96.90
2017-07-31T20:18:16.562Z,97.10
2017-07-31T20:20:44.054Z,97.00
2017-07-31T20:23:11.610Z,97.20
2017-07-31T20:25:39.889Z,97.70
2017-07-31T20:28:08.170Z,98.70
2017-07-31T20:30:35.720Z,98.70
2017-07-31T20:33:11.257Z,98.30
2017-07-31T20:35:39.542Z,98.70
2017-07-31T20:38:07.828Z,99.10
2017-07-31T20:40:36.197Z,99.30
2017-07-31T20:43:04.476Z,99.10
2017-07-31T20:45:32.756Z,98.90
2017-07-31T20:48:00.998Z,99.50
2017-07-31T20:50:28.578Z,99.40
2017-07-31T20:52:56.862Z,99.70
2017-07-31T20:55:25.127Z,99.80
2017-07-31T20:57:52.698Z,99.80
2017-07-31T21:00:21.082Z,99.70
2017-07-31T21:02:49.360Z,99.80
2017-07-31T21:05:17.637Z,99.90
2017-07-31T21:07:45.902Z,99.90
2017-07-31T21:10:14.177Z,99.90
2017-07-31T21:12:42.462Z,99.90
2017-07-31T21:15:10.737Z,99.90
2017-07-31T21:17:39.011Z,99.90
2017-07-31T21:20:06.497Z,99.90
2017-07-31T21:22:33.998Z,99.70
2017-07-31T21:25:01.619Z,99.80
2017-07-31T21:27:29.142Z,99.70
2017-07-31T21:29:57.438Z,99.70
2017-07-31T21:32:24.993Z,99.70
2017-07-31T21:34:53.276Z,99.90
2017-07-31T21:37:20.824Z,99.90
2017-07-31T21:39:49.095Z,99.80
2017-07-31T21:42:17.403Z,99.90
2017-07-31T21:44:44.876Z,99.80
2017-07-31T21:47:12.389Z,99.70
2017-07-31T21:49:40.624Z,99.90
2017-07-31T21:52:08.221Z,99.90
2017-07-31T21:54:36.513Z,99.90
2017-07-31T21:57:04.064Z,99.90
2017-07-31T21:59:32.437Z,99.90
2017-07-31T22:02:00.714Z,99.90
2017-07-31T22:04:28.996Z,99.90
2017-07-31T22:06:57.281Z,99.90
2017-07-31T22:09:24.818Z,99.90
2017-07-31T22:11:53.058Z,99.90
2017-07-31T22:14:20.566Z,99.90
2017-07-31T22:16:54.438Z,99.90
2017-07-31T22:19:22.030Z,99.90
2017-07-31T22:21:56.174Z,99.90
2017-07-31T22:24:23.655Z,99.90
2017-07-31T22:26:51.132Z,99.90
2017-07-31T22:29:18.725Z,99.90
2017-07-31T22:31:46.990Z,99.90
2017-07-31T22:34:15.268Z,99.90
2017-07-31T22:36:43.509Z,99.90
2017-07-31T22:39:11.109Z,99.90
2017-07-31T22:41:39.415Z,99.90
2017-07-31T22:44:06.903Z,99.90
2017-07-31T22:46:34.494Z,99.90
2017-07-31T22:49:02.780Z,99.90
2017-07-31T22:51:31.046Z,99.90
2017-07-31T22:54:06.077Z,99.90
2017-07-31T22:56:33.662Z,99.90
2017-07-31T22:59:01.210Z,99.90
2017-07-31T23:01:29.488Z,99.90
2017-07-31T23:03:57.751Z,99.90
2017-07-31T23:06:25.316Z,99.90
2017-07-31T23:08:53.595Z,99.90
2017-07-31T23:11:21.883Z,99.90
2017-07-31T23:13:50.127Z,99.90
2017-07-31T23:16:18.421Z,99.90
2017-07-31T23:18:46.701Z,99.90
2017-07-31T23:21:14.988Z,99.90
2017-07-31T23:23:43.254Z,99.90
2017-07-31T23:26:11.533Z,99.90
2017-07-31T23:28:39.807Z,99.90
2017-07-31T23:31:20.838Z,99.90
2017-07-31T23:33:48.341Z,99.90
2017-07-31T23:36:16.615Z,99.90
2017-07-31T23:38:44.854Z,99.90
2017-07-31T23:41:12.351Z,99.90
2017-07-31T23:43:40.626Z,99.90
2017-07-31T23:46:08.904Z,99.90
2017-07-31T23:48:37.212Z,99.90
2017-07-31T23:51:04.700Z,99.90
2017-07-31T23:53:32.199Z,99.90
2017-07-31T23:56:00.438Z,99.90
2017-07-31T23:58:27.932Z,99.90
